sensor_id;sensor_type;location;lat;lon;timestamp;P1;durP1;ratioP1;P2;durP2;ratioP2
75236;SDS011;63826;48.100;-1.670;2023-02-01T07:48:06;7.43;;;1.60;;
75236;SDS011;63826;48.100;-1.670;2023-02-01T07:50:32;8.10;;;1.67;;
75236;SDS011;63826;48.100;-1.670;2023-02-01T07:52:59;7.00;;;1.38;;
75236;SDS011;63826;48.100;-1.670;2023-02-01T07:55:25;7.22;;;1.50;;
75236;SDS011;63826;48.100;-1.670;2023-02-01T07:57:51;9.13;;;1.67;;
75236;SDS011;63826;48.100;-1.670;2023-02-01T08:00:18;8.77;;;1.60;;
75236;SDS011;63826;48.100;-1.670;2023-02-01T08:03:03;9.95;;;1.80;;
75236;SDS011;63826;48.100;-1.670;2023-02-01T08:05:29;9.55;;;2.00;;
75236;SDS011;63826;48.100;-1.670;2023-02-01T08:07:55;7.03;;;1.63;;
75236;SDS011;63826;48.100;-1.670;2023-02-01T08:10:21;10.30;;;1.95;;
75236;SDS011;63826;48.100;-1.670;2023-02-01T08:12:47;9.43;;;1.98;;
75236;SDS011;63826;48.100;-1.670;2023-02-01T08:15:17;5.77;;;1.27;;
75236;SDS011;63826;48.100;-1.670;2023-02-01T08:17:47;9.95;;;1.73;;
75236;SDS011;63826;48.100;-1.670;2023-02-01T08:20:13;9.85;;;1.80;;
75236;SDS011;63826;48.100;-1.670;2023-02-01T08:22:39;8.57;;;1.70;;
75236;SDS011;63826;48.100;-1.670;2023-02-01T08:25:05;8.00;;;1.50;;
75236;SDS011;63826;48.100;-1.670;2023-02-01T08:27:34;7.03;;;1.55;;
75236;SDS011;63826;48.100;-1.670;2023-02-01T08:30:00;6.90;;;1.50;;
75236;SDS011;63826;48.100;-1.670;2023-02-01T08:32:27;8.88;;;1.33;;
75236;SDS011;63826;48.100;-1.670;2023-02-01T08:34:53;7.05;;;1.65;;
75236;SDS011;63826;48.100;-1.670;2023-02-01T08:37:19;8.53;;;1.63;;
75236;SDS011;63826;48.100;-1.670;2023-02-01T08:39:45;8.45;;;1.40;;
75236;SDS011;63826;48.100;-1.670;2023-02-01T08:42:12;5.63;;;1.40;;
75236;SDS011;63826;48.100;-1.670;2023-02-01T08:44:56;5.70;;;1.50;;
75236;SDS011;63826;48.100;-1.670;2023-02-01T08:47:22;8.93;;;1.73;;
75236;SDS011;63826;48.100;-1.670;2023-02-01T08:49:48;8.18;;;1.75;;
75236;SDS011;63826;48.100;-1.670;2023-02-01T08:52:14;8.80;;;1.67;;
75236;SDS011;63826;48.100;-1.670;2023-02-01T08:54:40;6.72;;;1.38;;
75236;SDS011;63826;48.100;-1.670;2023-02-01T08:57:06;8.98;;;1.65;;
75236;SDS011;63826;48.100;-1.670;2023-02-01T08:59:34;8.30;;;1.50;;
75236;SDS011;63826;48.100;-1.670;2023-02-01T09:02:00;7.87;;;1.50;;
75236;SDS011;63826;48.100;-1.670;2023-02-01T09:04:26;7.65;;;1.35;;
75236;SDS011;63826;48.100;-1.670;2023-02-01T09:06:52;8.55;;;1.60;;
75236;SDS011;63826;48.100;-1.670;2023-02-01T09:09:20;6.57;;;1.40;;
75236;SDS011;63826;48.100;-1.670;2023-02-01T09:11:46;6.97;;;1.30;;
75236;SDS011;63826;48.100;-1.670;2023-02-01T09:14:12;7.00;;;1.67;;
75236;SDS011;63826;48.100;-1.670;2023-02-01T09:16:38;7.57;;;2.05;;
75236;SDS011;63826;48.100;-1.670;2023-02-01T09:19:04;8.75;;;1.58;;
75236;SDS011;63826;48.100;-1.670;2023-02-01T09:21:30;7.50;;;1.80;;
75236;SDS011;63826;48.100;-1.670;2023-02-01T09:23:56;8.50;;;1.45;;
75236;SDS011;63826;48.100;-1.670;2023-02-01T09:26:22;7.80;;;1.45;;
75236;SDS011;63826;48.100;-1.670;2023-02-01T09:28:48;7.20;;;1.55;;
75236;SDS011;63826;48.100;-1.670;2023-02-01T09:31:14;7.03;;;1.27;;
75236;SDS011;63826;48.100;-1.670;2023-02-01T09:33:40;7.40;;;1.43;;
75236;SDS011;63826;48.100;-1.670;2023-02-01T09:36:06;7.03;;;1.38;;
75236;SDS011;63826;48.100;-1.670;2023-02-01T09:38:32;6.68;;;1.55;;
75236;SDS011;63826;48.100;-1.670;2023-02-01T09:40:58;7.68;;;1.52;;
75236;SDS011;63826;48.100;-1.670;2023-02-01T09:48:37;8.90;;;1.63;;
75236;SDS011;63826;48.100;-1.670;2023-02-01T09:51:05;7.15;;;1.60;;
75236;SDS011;63826;48.100;-1.670;2023-02-01T09:53:37;7.82;;;1.50;;
75236;SDS011;63826;48.100;-1.670;2023-02-01T09:56:05;15.85;;;1.88;;
75236;SDS011;63826;48.100;-1.670;2023-02-01T09:58:40;8.05;;;1.73;;
75236;SDS011;63826;48.100;-1.670;2023-02-01T10:01:15;9.13;;;1.63;;
75236;SDS011;63826;48.100;-1.670;2023-02-01T10:03:43;8.15;;;1.67;;
75236;SDS011;63826;48.100;-1.670;2023-02-01T10:06:20;8.35;;;1.50;;
75236;SDS011;63826;48.100;-1.670;2023-02-01T10:11:39;8.57;;;1.70;;
75236;SDS011;63826;48.100;-1.670;2023-02-01T10:17:04;6.97;;;1.45;;
75236;SDS011;63826;48.100;-1.670;2023-02-01T10:19:39;7.20;;;1.45;;
75236;SDS011;63826;48.100;-1.670;2023-02-01T10:22:10;8.82;;;1.83;;
75236;SDS011;63826;48.100;-1.670;2023-02-01T10:27:13;8.27;;;1.70;;
75236;SDS011;63826;48.100;-1.670;2023-02-01T10:29:41;7.43;;;1.67;;
75236;SDS011;63826;48.100;-1.670;2023-02-01T10:32:15;8.40;;;1.50;;
75236;SDS011;63826;48.100;-1.670;2023-02-01T10:34:42;5.68;;;1.45;;
75236;SDS011;63826;48.100;-1.670;2023-02-01T10:37:12;7.25;;;1.88;;
75236;SDS011;63826;48.100;-1.670;2023-02-01T10:39:43;8.00;;;1.65;;
75236;SDS011;63826;48.100;-1.670;2023-02-01T10:42:09;9.18;;;1.83;;
75236;SDS011;63826;48.100;-1.670;2023-02-01T10:44:36;7.40;;;2.00;;
75236;SDS011;63826;48.100;-1.670;2023-02-01T10:47:05;7.15;;;1.80;;
75236;SDS011;63826;48.100;-1.670;2023-02-01T10:49:37;7.28;;;1.92;;
75236;SDS011;63826;48.100;-1.670;2023-02-01T10:52:12;6.90;;;1.73;;
75236;SDS011;63826;48.100;-1.670;2023-02-01T10:54:39;11.40;;;2.13;;
75236;SDS011;63826;48.100;-1.670;2023-02-01T10:57:09;8.55;;;2.30;;
75236;SDS011;63826;48.100;-1.670;2023-02-01T10:59:36;5.97;;;1.55;;
75236;SDS011;63826;48.100;-1.670;2023-02-01T11:04:48;8.32;;;1.17;;
75236;SDS011;63826;48.100;-1.670;2023-02-01T11:09:40;8.15;;;1.90;;
75236;SDS011;63826;48.100;-1.670;2023-02-01T11:12:20;7.37;;;1.60;;
75236;SDS011;63826;48.100;-1.670;2023-02-01T11:14:48;9.43;;;1.52;;
75236;SDS011;63826;48.100;-1.670;2023-02-01T11:19:46;9.40;;;2.15;;
75236;SDS011;63826;48.100;-1.670;2023-02-01T11:22:12;8.93;;;1.63;;
75236;SDS011;63826;48.100;-1.670;2023-02-01T11:24:38;8.60;;;1.87;;
75236;SDS011;63826;48.100;-1.670;2023-02-01T11:27:12;10.60;;;1.95;;
75236;SDS011;63826;48.100;-1.670;2023-02-01T11:29:40;13.02;;;1.98;;
75236;SDS011;63826;48.100;-1.670;2023-02-01T11:32:07;11.25;;;2.15;;
75236;SDS011;63826;48.100;-1.670;2023-02-01T11:34:36;11.80;;;1.85;;
75236;SDS011;63826;48.100;-1.670;2023-02-01T11:37:03;12.37;;;1.53;;
75236;SDS011;63826;48.100;-1.670;2023-02-01T11:39:30;8.68;;;1.98;;
75236;SDS011;63826;48.100;-1.670;2023-02-01T11:44:30;9.43;;;1.65;;
75236;SDS011;63826;48.100;-1.670;2023-02-01T11:47:19;10.10;;;1.75;;
75236;SDS011;63826;48.100;-1.670;2023-02-01T11:49:46;18.53;;;2.17;;
75236;SDS011;63826;48.100;-1.670;2023-02-01T12:05:06;9.48;;;1.95;;
75236;SDS011;63826;48.100;-1.670;2023-02-01T12:07:44;8.98;;;1.70;;
75236;SDS011;63826;48.100;-1.670;2023-02-01T12:10:21;6.93;;;1.70;;
75236;SDS011;63826;48.100;-1.670;2023-02-01T12:20:21;6.82;;;1.52;;
75236;SDS011;63826;48.100;-1.670;2023-02-01T12:28:13;8.35;;;1.50;;
75236;SDS011;63826;48.100;-1.670;2023-02-01T12:33:38;7.13;;;1.27;;
75236;SDS011;63826;48.100;-1.670;2023-02-01T12:36:18;7.25;;;1.60;;
75236;SDS011;63826;48.100;-1.670;2023-02-01T12:38:48;8.20;;;1.55;;
75236;SDS011;63826;48.100;-1.670;2023-02-01T12:41:26;7.40;;;1.60;;
75236;SDS011;63826;48.100;-1.670;2023-02-01T12:43:59;7.63;;;1.42;;
75236;SDS011;63826;48.100;-1.670;2023-02-01T12:46:33;8.38;;;1.42;;
75236;SDS011;63826;48.100;-1.670;2023-02-01T12:49:01;6.72;;;1.65;;
75236;SDS011;63826;48.100;-1.670;2023-02-01T12:51:41;8.50;;;1.70;;
75236;SDS011;63826;48.100;-1.670;2023-02-01T12:54:21;7.40;;;1.30;;
75236;SDS011;63826;48.100;-1.670;2023-02-01T12:56:55;8.00;;;1.48;;
75236;SDS011;63826;48.100;-1.670;2023-02-01T12:59:36;6.22;;;1.10;;
75236;SDS011;63826;48.100;-1.670;2023-02-01T13:09:41;6.65;;;1.40;;
75236;SDS011;63826;48.100;-1.670;2023-02-01T13:12:13;6.43;;;1.25;;
75236;SDS011;63826;48.100;-1.670;2023-02-01T13:14:43;6.50;;;1.40;;
75236;SDS011;63826;48.100;-1.670;2023-02-01T13:22:05;6.85;;;1.30;;
75236;SDS011;63826;48.100;-1.670;2023-02-01T13:27:04;5.73;;;1.00;;
75236;SDS011;63826;48.100;-1.670;2023-02-01T13:29:30;8.00;;;1.50;;
75236;SDS011;63826;48.100;-1.670;2023-02-01T13:45:17;8.55;;;1.35;;
75236;SDS011;63826;48.100;-1.670;2023-02-01T13:47:45;8.13;;;1.52;;
75236;SDS011;63826;48.100;-1.670;2023-02-01T13:52:57;7.83;;;1.40;;
75236;SDS011;63826;48.100;-1.670;2023-02-01T13:55:25;8.38;;;1.50;;
75236;SDS011;63826;48.100;-1.670;2023-02-01T13:57:59;6.93;;;1.55;;
75236;SDS011;63826;48.100;-1.670;2023-02-01T14:00:30;6.80;;;1.55;;
75236;SDS011;63826;48.100;-1.670;2023-02-01T14:13:35;8.45;;;1.95;;
75236;SDS011;63826;48.100;-1.670;2023-02-01T14:34:15;6.82;;;1.67;;
75236;SDS011;63826;48.100;-1.670;2023-02-01T14:36:43;8.70;;;1.42;;
75236;SDS011;63826;48.100;-1.670;2023-02-01T14:41:56;6.13;;;1.27;;
75236;SDS011;63826;48.100;-1.670;2023-02-01T14:44:24;8.17;;;1.70;;
75236;SDS011;63826;48.100;-1.670;2023-02-01T14:47:03;6.88;;;1.20;;
75236;SDS011;63826;48.100;-1.670;2023-02-01T14:49:33;6.97;;;1.48;;
75236;SDS011;63826;48.100;-1.670;2023-02-01T14:52:01;9.43;;;1.63;;
75236;SDS011;63826;48.100;-1.670;2023-02-01T14:54:28;7.55;;;1.80;;
75236;SDS011;63826;48.100;-1.670;2023-02-01T14:56:54;12.68;;;2.15;;
75236;SDS011;63826;48.100;-1.670;2023-02-01T14:59:21;8.20;;;1.48;;
75236;SDS011;63826;48.100;-1.670;2023-02-01T15:01:50;7.38;;;1.33;;
75236;SDS011;63826;48.100;-1.670;2023-02-01T15:04:17;6.90;;;1.60;;
75236;SDS011;63826;48.100;-1.670;2023-02-01T15:06:51;6.30;;;1.38;;
75236;SDS011;63826;48.100;-1.670;2023-02-01T15:14:20;8.25;;;1.70;;
75236;SDS011;63826;48.100;-1.670;2023-02-01T15:16:46;10.88;;;1.98;;
75236;SDS011;63826;48.100;-1.670;2023-02-01T15:19:19;8.05;;;1.77;;
75236;SDS011;63826;48.100;-1.670;2023-02-01T15:21:47;11.95;;;1.75;;
75236;SDS011;63826;48.100;-1.670;2023-02-01T15:24:17;9.43;;;1.77;;
75236;SDS011;63826;48.100;-1.670;2023-02-01T15:26:44;10.45;;;2.10;;
75236;SDS011;63826;48.100;-1.670;2023-02-01T15:29:11;7.28;;;2.10;;
75236;SDS011;63826;48.100;-1.670;2023-02-01T15:31:41;8.27;;;2.03;;
75236;SDS011;63826;48.100;-1.670;2023-02-01T15:34:08;8.93;;;1.60;;
75236;SDS011;63826;48.100;-1.670;2023-02-01T15:36:34;8.98;;;1.70;;
75236;SDS011;63826;48.100;-1.670;2023-02-01T15:39:15;8.48;;;1.77;;
75236;SDS011;63826;48.100;-1.670;2023-02-01T15:41:45;7.40;;;1.70;;
75236;SDS011;63826;48.100;-1.670;2023-02-01T15:44:16;8.77;;;2.13;;
75236;SDS011;63826;48.100;-1.670;2023-02-01T15:46:45;9.48;;;1.52;;
75236;SDS011;63826;48.100;-1.670;2023-02-01T15:49:20;6.10;;;1.42;;
75236;SDS011;63826;48.100;-1.670;2023-02-01T15:51:46;6.80;;;1.60;;
75236;SDS011;63826;48.100;-1.670;2023-02-01T15:54:16;8.00;;;1.58;;
75236;SDS011;63826;48.100;-1.670;2023-02-01T15:56:44;5.95;;;1.40;;
75236;SDS011;63826;48.100;-1.670;2023-02-01T15:59:18;8.07;;;1.80;;
75236;SDS011;63826;48.100;-1.670;2023-02-01T16:01:44;9.18;;;1.85;;
75236;SDS011;63826;48.100;-1.670;2023-02-01T16:06:45;7.82;;;2.03;;
75236;SDS011;63826;48.100;-1.670;2023-02-01T16:09:12;7.93;;;2.00;;
75236;SDS011;63826;48.100;-1.670;2023-02-01T16:11:58;7.27;;;1.90;;
75236;SDS011;63826;48.100;-1.670;2023-02-01T16:14:25;9.38;;;2.05;;
75236;SDS011;63826;48.100;-1.670;2023-02-01T16:16:51;9.07;;;2.03;;
75236;SDS011;63826;48.100;-1.670;2023-02-01T16:19:18;8.85;;;1.90;;
75236;SDS011;63826;48.100;-1.670;2023-02-01T16:21:44;8.52;;;2.10;;
75236;SDS011;63826;48.100;-1.670;2023-02-01T16:24:11;8.43;;;2.17;;
75236;SDS011;63826;48.100;-1.670;2023-02-01T16:26:37;7.45;;;1.85;;
75236;SDS011;63826;48.100;-1.670;2023-02-01T16:29:03;8.68;;;2.03;;
75236;SDS011;63826;48.100;-1.670;2023-02-01T16:31:32;13.60;;;2.50;;
75236;SDS011;63826;48.100;-1.670;2023-02-01T16:33:58;8.38;;;2.05;;
75236;SDS011;63826;48.100;-1.670;2023-02-01T16:36:24;10.43;;;2.65;;
75236;SDS011;63826;48.100;-1.670;2023-02-01T16:38:52;9.15;;;2.83;;
75236;SDS011;63826;48.100;-1.670;2023-02-01T16:41:19;9.93;;;2.40;;
75236;SDS011;63826;48.100;-1.670;2023-02-01T16:43:45;10.13;;;2.80;;
75236;SDS011;63826;48.100;-1.670;2023-02-01T16:46:12;8.77;;;2.70;;
75236;SDS011;63826;48.100;-1.670;2023-02-01T16:48:40;12.52;;;3.58;;
75236;SDS011;63826;48.100;-1.670;2023-02-01T16:51:10;13.55;;;4.22;;
75236;SDS011;63826;48.100;-1.670;2023-02-01T16:53:37;14.40;;;4.35;;
75236;SDS011;63826;48.100;-1.670;2023-02-01T16:56:16;12.70;;;3.47;;
75236;SDS011;63826;48.100;-1.670;2023-02-01T16:58:43;10.05;;;2.95;;
75236;SDS011;63826;48.100;-1.670;2023-02-01T17:01:10;10.80;;;3.27;;
75236;SDS011;63826;48.100;-1.670;2023-02-01T17:03:36;11.65;;;3.45;;
75236;SDS011;63826;48.100;-1.670;2023-02-01T17:06:02;10.75;;;3.30;;
75236;SDS011;63826;48.100;-1.670;2023-02-01T17:08:30;9.57;;;2.88;;
75236;SDS011;63826;48.100;-1.670;2023-02-01T17:10:56;11.10;;;3.42;;
75236;SDS011;63826;48.100;-1.670;2023-02-01T17:13:22;13.57;;;3.47;;
75236;SDS011;63826;48.100;-1.670;2023-02-01T17:15:49;9.48;;;3.03;;
75236;SDS011;63826;48.100;-1.670;2023-02-01T17:18:15;10.65;;;3.20;;
75236;SDS011;63826;48.100;-1.670;2023-02-01T17:20:42;9.77;;;3.33;;
75236;SDS011;63826;48.100;-1.670;2023-02-01T17:23:08;10.68;;;3.35;;
75236;SDS011;63826;48.100;-1.670;2023-02-01T17:25:35;10.47;;;3.00;;
75236;SDS011;63826;48.100;-1.670;2023-02-01T17:28:00;9.57;;;2.95;;
75236;SDS011;63826;48.100;-1.670;2023-02-01T17:30:27;11.02;;;3.20;;
75236;SDS011;63826;48.100;-1.670;2023-02-01T17:32:53;10.13;;;3.10;;
75236;SDS011;63826;48.100;-1.670;2023-02-01T17:35:22;9.55;;;2.95;;
75236;SDS011;63826;48.100;-1.670;2023-02-01T17:37:48;11.40;;;3.23;;
75236;SDS011;63826;48.100;-1.670;2023-02-01T17:40:15;11.75;;;3.50;;
75236;SDS011;63826;48.100;-1.670;2023-02-01T17:42:41;10.80;;;3.50;;
75236;SDS011;63826;48.100;-1.670;2023-02-01T17:47:45;10.83;;;3.07;;
75236;SDS011;63826;48.100;-1.670;2023-02-01T17:50:12;10.85;;;3.55;;
75236;SDS011;63826;48.100;-1.670;2023-02-01T17:52:38;9.13;;;2.88;;
75236;SDS011;63826;48.100;-1.670;2023-02-01T17:55:39;8.48;;;2.78;;
75236;SDS011;63826;48.100;-1.670;2023-02-01T17:57:56;9.50;;;3.20;;
75236;SDS011;63826;48.100;-1.670;2023-02-01T18:00:22;9.60;;;3.00;;
75236;SDS011;63826;48.100;-1.670;2023-02-01T18:02:48;8.73;;;2.80;;
75236;SDS011;63826;48.100;-1.670;2023-02-01T18:05:25;8.80;;;2.63;;
75236;SDS011;63826;48.100;-1.670;2023-02-01T18:07:52;9.35;;;2.85;;
75236;SDS011;63826;48.100;-1.670;2023-02-01T18:10:18;11.38;;;3.22;;
75236;SDS011;63826;48.100;-1.670;2023-02-01T18:12:44;7.90;;;2.47;;
75236;SDS011;63826;48.100;-1.670;2023-02-01T18:15:17;10.85;;;3.00;;
75236;SDS011;63826;48.100;-1.670;2023-02-01T18:17:44;8.70;;;2.85;;
75236;SDS011;63826;48.100;-1.670;2023-02-01T18:20:15;7.53;;;2.45;;
75236;SDS011;63826;48.100;-1.670;2023-02-01T18:22:42;7.45;;;2.38;;
75236;SDS011;63826;48.100;-1.670;2023-02-01T18:25:12;8.80;;;2.50;;
75236;SDS011;63826;48.100;-1.670;2023-02-01T18:27:40;8.40;;;2.53;;
75236;SDS011;63826;48.100;-1.670;2023-02-01T18:30:07;9.07;;;2.72;;
75236;SDS011;63826;48.100;-1.670;2023-02-01T18:32:33;8.60;;;2.72;;
75236;SDS011;63826;48.100;-1.670;2023-02-01T18:34:59;11.60;;;3.05;;
75236;SDS011;63826;48.100;-1.670;2023-02-01T18:37:25;7.47;;;2.37;;
75236;SDS011;63826;48.100;-1.670;2023-02-01T18:39:51;10.50;;;3.08;;
75236;SDS011;63826;48.100;-1.670;2023-02-01T18:42:17;8.27;;;2.55;;
75236;SDS011;63826;48.100;-1.670;2023-02-01T18:44:43;9.40;;;3.07;;
75236;SDS011;63826;48.100;-1.670;2023-02-01T18:47:09;10.30;;;3.30;;
75236;SDS011;63826;48.100;-1.670;2023-02-01T18:49:35;8.15;;;2.70;;
75236;SDS011;63826;48.100;-1.670;2023-02-01T18:52:01;9.00;;;3.10;;
75236;SDS011;63826;48.100;-1.670;2023-02-01T18:54:27;8.23;;;3.00;;
75236;SDS011;63826;48.100;-1.670;2023-02-01T18:56:53;9.27;;;3.03;;
75236;SDS011;63826;48.100;-1.670;2023-02-01T18:59:19;8.23;;;2.97;;
75236;SDS011;63826;48.100;-1.670;2023-02-01T19:01:45;7.63;;;2.85;;
75236;SDS011;63826;48.100;-1.670;2023-02-01T19:04:11;7.80;;;2.88;;
75236;SDS011;63826;48.100;-1.670;2023-02-01T19:06:38;11.35;;;3.13;;
75236;SDS011;63826;48.100;-1.670;2023-02-01T19:09:04;10.02;;;3.38;;
75236;SDS011;63826;48.100;-1.670;2023-02-01T19:11:30;8.97;;;3.47;;
75236;SDS011;63826;48.100;-1.670;2023-02-01T19:13:56;9.90;;;3.50;;
75236;SDS011;63826;48.100;-1.670;2023-02-01T19:16:22;8.77;;;3.55;;
75236;SDS011;63826;48.100;-1.670;2023-02-01T19:18:51;10.07;;;3.10;;
75236;SDS011;63826;48.100;-1.670;2023-02-01T19:21:17;10.02;;;3.40;;
75236;SDS011;63826;48.100;-1.670;2023-02-01T19:23:44;9.63;;;3.23;;
75236;SDS011;63826;48.100;-1.670;2023-02-01T19:26:11;9.13;;;3.33;;
75236;SDS011;63826;48.100;-1.670;2023-02-01T19:28:37;12.05;;;3.88;;
75236;SDS011;63826;48.100;-1.670;2023-02-01T19:31:03;11.40;;;3.40;;
75236;SDS011;63826;48.100;-1.670;2023-02-01T19:33:30;10.10;;;4.03;;
75236;SDS011;63826;48.100;-1.670;2023-02-01T19:36:00;10.80;;;4.38;;
75236;SDS011;63826;48.100;-1.670;2023-02-01T19:38:29;8.73;;;3.42;;
75236;SDS011;63826;48.100;-1.670;2023-02-01T19:40:55;8.93;;;3.30;;
75236;SDS011;63826;48.100;-1.670;2023-02-01T19:43:21;10.82;;;4.03;;
75236;SDS011;63826;48.100;-1.670;2023-02-01T19:45:47;10.07;;;4.10;;
75236;SDS011;63826;48.100;-1.670;2023-02-01T19:48:13;10.10;;;3.70;;
75236;SDS011;63826;48.100;-1.670;2023-02-01T19:50:40;9.80;;;3.90;;
75236;SDS011;63826;48.100;-1.670;2023-02-01T19:53:06;11.32;;;3.95;;
75236;SDS011;63826;48.100;-1.670;2023-02-01T19:55:32;8.50;;;3.70;;
75236;SDS011;63826;48.100;-1.670;2023-02-01T19:57:58;8.70;;;3.23;;
75236;SDS011;63826;48.100;-1.670;2023-02-01T20:00:26;9.73;;;3.88;;
75236;SDS011;63826;48.100;-1.670;2023-02-01T20:02:52;9.77;;;3.75;;
75236;SDS011;63826;48.100;-1.670;2023-02-01T20:05:18;9.55;;;3.83;;
75236;SDS011;63826;48.100;-1.670;2023-02-01T20:07:44;9.65;;;3.90;;
75236;SDS011;63826;48.100;-1.670;2023-02-01T20:10:10;10.77;;;4.13;;
75236;SDS011;63826;48.100;-1.670;2023-02-01T20:12:36;9.65;;;4.40;;
75236;SDS011;63826;48.100;-1.670;2023-02-01T20:15:02;9.52;;;4.18;;
75236;SDS011;63826;48.100;-1.670;2023-02-01T20:17:29;12.00;;;3.75;;
75236;SDS011;63826;48.100;-1.670;2023-02-01T20:19:55;10.27;;;4.28;;
75236;SDS011;63826;48.100;-1.670;2023-02-01T20:22:21;9.23;;;3.75;;
75236;SDS011;63826;48.100;-1.670;2023-02-01T20:24:47;9.57;;;3.85;;
75236;SDS011;63826;48.100;-1.670;2023-02-01T20:27:13;10.77;;;3.67;;
75236;SDS011;63826;48.100;-1.670;2023-02-01T20:29:39;8.80;;;3.60;;
75236;SDS011;63826;48.100;-1.670;2023-02-01T20:32:05;9.90;;;3.40;;
75236;SDS011;63826;48.100;-1.670;2023-02-01T20:34:31;9.83;;;3.50;;
75236;SDS011;63826;48.100;-1.670;2023-02-01T20:36:57;9.82;;;3.80;;
75236;SDS011;63826;48.100;-1.670;2023-02-01T20:39:23;8.63;;;3.22;;
75236;SDS011;63826;48.100;-1.670;2023-02-01T20:41:49;8.48;;;3.55;;
75236;SDS011;63826;48.100;-1.670;2023-02-01T20:44:15;8.00;;;3.17;;
75236;SDS011;63826;48.100;-1.670;2023-02-01T20:46:41;9.15;;;3.10;;
75236;SDS011;63826;48.100;-1.670;2023-02-01T20:49:07;11.90;;;3.30;;
75236;SDS011;63826;48.100;-1.670;2023-02-01T20:51:33;9.15;;;3.03;;
75236;SDS011;63826;48.100;-1.670;2023-02-01T20:53:59;8.45;;;3.30;;
75236;SDS011;63826;48.100;-1.670;2023-02-01T20:56:25;10.30;;;3.30;;
75236;SDS011;63826;48.100;-1.670;2023-02-01T20:58:51;9.43;;;3.28;;
75236;SDS011;63826;48.100;-1.670;2023-02-01T21:01:17;8.63;;;3.03;;
75236;SDS011;63826;48.100;-1.670;2023-02-01T21:03:43;9.32;;;3.20;;
75236;SDS011;63826;48.100;-1.670;2023-02-01T21:06:10;7.93;;;3.03;;
75236;SDS011;63826;48.100;-1.670;2023-02-01T21:08:36;9.70;;;3.35;;
75236;SDS011;63826;48.100;-1.670;2023-02-01T21:13:30;7.53;;;3.05;;
75236;SDS011;63826;48.100;-1.670;2023-02-01T21:15:56;7.97;;;2.97;;
75236;SDS011;63826;48.100;-1.670;2023-02-01T21:18:22;7.75;;;2.70;;
75236;SDS011;63826;48.100;-1.670;2023-02-01T21:20:49;9.00;;;2.70;;
75236;SDS011;63826;48.100;-1.670;2023-02-01T21:23:15;9.82;;;2.90;;
75236;SDS011;63826;48.100;-1.670;2023-02-01T21:25:41;8.88;;;2.78;;
75236;SDS011;63826;48.100;-1.670;2023-02-01T21:28:08;9.25;;;2.70;;
75236;SDS011;63826;48.100;-1.670;2023-02-01T21:30:34;9.15;;;2.70;;
75236;SDS011;63826;48.100;-1.670;2023-02-01T21:33:01;8.93;;;2.90;;
75236;SDS011;63826;48.100;-1.670;2023-02-01T21:35:27;8.63;;;2.90;;
75236;SDS011;63826;48.100;-1.670;2023-02-01T21:37:53;7.85;;;2.63;;
75236;SDS011;63826;48.100;-1.670;2023-02-01T21:40:19;8.50;;;2.28;;
75236;SDS011;63826;48.100;-1.670;2023-02-01T21:42:45;6.72;;;2.42;;
75236;SDS011;63826;48.100;-1.670;2023-02-01T21:45:12;9.27;;;2.60;;
75236;SDS011;63826;48.100;-1.670;2023-02-01T21:47:38;8.13;;;2.30;;
75236;SDS011;63826;48.100;-1.670;2023-02-01T21:50:05;8.02;;;2.35;;
75236;SDS011;63826;48.100;-1.670;2023-02-01T21:52:31;7.60;;;2.20;;
75236;SDS011;63826;48.100;-1.670;2023-02-01T21:54:58;6.88;;;2.60;;
75236;SDS011;63826;48.100;-1.670;2023-02-01T21:57:25;7.17;;;2.20;;
75236;SDS011;63826;48.100;-1.670;2023-02-01T21:59:51;7.78;;;2.33;;
75236;SDS011;63826;48.100;-1.670;2023-02-01T22:02:17;6.68;;;1.98;;
75236;SDS011;63826;48.100;-1.670;2023-02-01T22:04:43;7.68;;;2.47;;
75236;SDS011;63826;48.100;-1.670;2023-02-01T22:07:10;7.28;;;2.47;;
75236;SDS011;63826;48.100;-1.670;2023-02-01T22:09:36;9.10;;;2.37;;
75236;SDS011;63826;48.100;-1.670;2023-02-01T22:12:02;6.53;;;2.35;;
75236;SDS011;63826;48.100;-1.670;2023-02-01T22:14:28;8.15;;;2.20;;
75236;SDS011;63826;48.100;-1.670;2023-02-01T22:16:54;6.15;;;1.92;;
75236;SDS011;63826;48.100;-1.670;2023-02-01T22:19:20;5.65;;;2.00;;
75236;SDS011;63826;48.100;-1.670;2023-02-01T22:21:47;6.65;;;2.35;;
75236;SDS011;63826;48.100;-1.670;2023-02-01T22:24:14;7.47;;;2.30;;
75236;SDS011;63826;48.100;-1.670;2023-02-01T22:26:40;5.35;;;1.90;;
75236;SDS011;63826;48.100;-1.670;2023-02-01T22:29:07;6.22;;;1.80;;
75236;SDS011;63826;48.100;-1.670;2023-02-01T22:31:33;7.40;;;1.90;;
75236;SDS011;63826;48.100;-1.670;2023-02-01T22:33:59;6.05;;;1.50;;
75236;SDS011;63826;48.100;-1.670;2023-02-01T22:36:25;7.05;;;2.10;;
75236;SDS011;63826;48.100;-1.670;2023-02-01T22:38:51;6.45;;;1.90;;
75236;SDS011;63826;48.100;-1.670;2023-02-01T22:41:18;6.32;;;1.70;;
75236;SDS011;63826;48.100;-1.670;2023-02-01T22:43:45;6.07;;;2.03;;
75236;SDS011;63826;48.100;-1.670;2023-02-01T22:46:14;5.60;;;1.67;;
75236;SDS011;63826;48.100;-1.670;2023-02-01T22:48:42;5.38;;;1.75;;
75236;SDS011;63826;48.100;-1.670;2023-02-01T22:51:12;5.93;;;1.88;;
75236;SDS011;63826;48.100;-1.670;2023-02-01T22:53:39;7.30;;;1.73;;
75236;SDS011;63826;48.100;-1.670;2023-02-01T22:56:05;6.70;;;1.77;;
75236;SDS011;63826;48.100;-1.670;2023-02-01T22:58:32;6.20;;;1.95;;
75236;SDS011;63826;48.100;-1.670;2023-02-01T23:01:19;8.05;;;2.00;;
75236;SDS011;63826;48.100;-1.670;2023-02-01T23:03:45;6.20;;;1.90;;
75236;SDS011;63826;48.100;-1.670;2023-02-01T23:06:11;6.65;;;1.88;;
75236;SDS011;63826;48.100;-1.670;2023-02-01T23:08:38;6.27;;;1.70;;
75236;SDS011;63826;48.100;-1.670;2023-02-01T23:11:06;6.53;;;1.60;;
75236;SDS011;63826;48.100;-1.670;2023-02-01T23:13:32;6.28;;;1.73;;
75236;SDS011;63826;48.100;-1.670;2023-02-01T23:16:02;5.75;;;1.70;;
75236;SDS011;63826;48.100;-1.670;2023-02-01T23:18:28;5.43;;;1.88;;
75236;SDS011;63826;48.100;-1.670;2023-02-01T23:20:54;6.60;;;1.90;;
75236;SDS011;63826;48.100;-1.670;2023-02-01T23:23:20;7.03;;;1.90;;
75236;SDS011;63826;48.100;-1.670;2023-02-01T23:25:49;5.93;;;1.88;;
75236;SDS011;63826;48.100;-1.670;2023-02-01T23:28:15;5.60;;;1.48;;
75236;SDS011;63826;48.100;-1.670;2023-02-01T23:30:41;6.38;;;1.80;;
75236;SDS011;63826;48.100;-1.670;2023-02-01T23:33:07;5.90;;;1.70;;
75236;SDS011;63826;48.100;-1.670;2023-02-01T23:35:33;6.78;;;1.95;;
75236;SDS011;63826;48.100;-1.670;2023-02-01T23:38:00;8.27;;;2.25;;
75236;SDS011;63826;48.100;-1.670;2023-02-01T23:40:26;6.03;;;1.98;;
75236;SDS011;63826;48.100;-1.670;2023-02-01T23:42:52;7.67;;;1.90;;
75236;SDS011;63826;48.100;-1.670;2023-02-01T23:45:36;6.50;;;1.87;;
75236;SDS011;63826;48.100;-1.670;2023-02-01T23:48:02;7.15;;;1.95;;
75236;SDS011;63826;48.100;-1.670;2023-02-01T23:50:28;6.47;;;1.90;;
75236;SDS011;63826;48.100;-1.670;2023-02-01T23:52:54;5.88;;;1.90;;
75236;SDS011;63826;48.100;-1.670;2023-02-01T23:55:20;5.33;;;1.70;;
75236;SDS011;63826;48.100;-1.670;2023-02-01T23:57:47;5.50;;;1.80;;
